Historyczne dane pomiarowe

Dodano dane terminowe – wersja testowa.

Dane z okresu 1951-2019

Wersja bazy: 1.34 [2019-03-16, lista zmian], aktualizacja planowana na 2019-04-15

Dane meteo z obszaru Polski uzyskane na podstawie danych udostępnionych przez Instytut Meteorologii i Gospodarki Wodnej – Państwowy Instytut Badawczy.

 

Wybierz Datę:    

       

TemperaturaWilgotnośćZachmurzenieWiatrCiśnienieWidzialnośćZjawiska
 Data    tng td wb rh cc ccl cl cm ch dir g1 g2 mslp ppp      
1999-07-21 00:00:00 18.6--- 17.7 18.094wxwx2wx--1011.7 989.2 0.0---wx
1999-07-21 01:00:00 18.6--- 17.5 17.993wxwx3wx--1011.6 989.1----wx
1999-07-21 02:00:00 18.9--- 17.0 17.789wxwx3wx--1011.3 988.8----wx
1999-07-21 03:00:00 18.6--- 16.7 17.489wxwx3wx--1011.1 988.6----wx
1999-07-21 04:00:00 18.5--- 16.6 17.389wxwxwx3wx--1011.0 988.5----wx
1999-07-21 05:00:00 19.2--- 16.7 17.685wxwxwx3wx--1010.9 988.4----wx
1999-07-21 06:00:00 20.7--- 17.2 18.480wxwxwxwx4wx--1010.8 988.5 0.0---wx
1999-07-21 07:00:00 22.7--- 16.5 18.768wxwxwxwx5wx--1010.9 988.7----wx
1999-07-21 08:00:00 23.9--- 16.3 19.063wxwxwxwx4wx--1010.7 988.6----wx
1999-07-21 09:00:00 24.7--- 15.5 18.857wxwxwxwx5wx--1011.0 988.9----wx
1999-07-21 10:00:00 24.2--- 15.4 18.658wxwxwxwx4wx--1010.9 988.8----wx
1999-07-21 11:00:00 25.5--- 16.1 19.456wxwxwxwx4wx--1010.2 988.2----wx
1999-07-21 12:00:00 25.1--- 16.2 19.358wxwxwxwx4wx--1010.1 988.1 0.0---wx
1999-07-21 13:00:00 20.1--- 17.2 18.283wxwxwxwx4wx--1010.9 988.5----wxw1
1999-07-21 14:00:00 21.0--- 18.1 19.184wxwxwxwx3wx--1010.7 988.4----wx
1999-07-21 15:00:00 24.3--- 16.8 19.463wxwxwxwx4wx--1010.2 988.1----wxw1
1999-07-21 16:00:00 24.0--- 15.2 18.458wxwxwxwx4wx--1009.9 987.8----wx
1999-07-21 17:00:00 23.0--- 14.7 17.860wxwxwxwx3wx--1010.1 987.9----wx
1999-07-21 18:00:00 23.0--- 15.8 18.464wxwxwx3wx--1010.2 988.0 1.3---wxw1
1999-07-21 19:00:00 21.9--- 15.3 17.766wxwxwxwx3wx--1010.2 988.0----wx
1999-07-21 20:00:00 20.6--- 14.8 17.070wxwxwxwx2wx--1010.6 988.3----wx
1999-07-21 21:00:00 19.4--- 14.4 16.373wxwxwxwx2wx--1011.0 988.6----wx
1999-07-21 22:00:00 20.0--- 10.7 14.655wxwx3wx--1011.2 988.8----wx
1999-07-21 23:00:00 19.7--- 9.7 14.053wxwx3wx--1011.4 989.0----wx

 

Źródłem pochodzenia danych jest Instytut Meteorologii i Gospodarki Wodnej – Państwowy Instytut Badawczy. Dane Instytutu Meteorologii i Gospodarki Wodnej – Państwowego Instytutu Badawczego zostały przetworzone.

Dane źródłowe można odnaleźć na stronie https://dane.imgw.pl